createdAt,value
2023-01-13T00:00:51.504Z,5.67
2023-01-13T00:05:53.772Z,5.70
2023-01-13T00:10:55.972Z,6.67
2023-01-13T00:15:59.618Z,4.13
2023-01-13T00:21:03.145Z,3.77
2023-01-13T00:26:08.599Z,4.13
2023-01-13T00:31:12.053Z,5.97
2023-01-13T00:36:15.743Z,3.93
2023-01-13T00:41:20.601Z,8.13
2023-01-13T00:46:23.187Z,5.60
2023-01-13T00:51:25.524Z,4.07
2023-01-13T00:56:39.813Z,3.50
2023-01-13T01:01:43.237Z,5.30
2023-01-13T01:06:45.531Z,7.67
2023-01-13T01:11:47.779Z,2.73
2023-01-13T01:16:49.964Z,4.13
2023-01-13T01:21:52.190Z,3.40
2023-01-13T01:26:54.422Z,3.80
2023-01-13T01:31:59.089Z,3.77
2023-01-13T01:37:01.328Z,5.60
2023-01-13T01:42:22.140Z,5.37
2023-01-13T01:47:25.367Z,3.87
2023-01-13T01:52:38.201Z,5.37
2023-01-13T01:58:12.388Z,4.83
2023-01-13T02:03:15.961Z,6.37
2023-01-13T02:08:18.638Z,5.57
2023-01-13T02:13:21.783Z,4.00
2023-01-13T02:18:32.600Z,3.03
2023-01-13T02:24:31.375Z,5.30
2023-01-13T02:30:15.429Z,4.43
2023-01-13T02:35:26.707Z,6.97
2023-01-13T02:40:40.445Z,4.00
2023-01-13T02:45:56.400Z,6.20
2023-01-13T02:51:11.048Z,5.63
2023-01-13T02:56:13.896Z,3.73
2023-01-13T03:01:17.127Z,3.93
2023-01-13T03:06:50.704Z,6.70
2023-01-13T03:12:17.667Z,4.73
2023-01-13T03:17:43.189Z,4.10
2023-01-13T03:22:53.521Z,5.00
2023-01-13T03:28:20.558Z,3.73
2023-01-13T03:33:35.192Z,5.17
2023-01-13T03:38:52.529Z,3.97
2023-01-13T03:44:22.436Z,6.23
2023-01-13T03:49:29.473Z,5.88
2023-01-13T03:54:33.392Z,4.33
2023-01-13T03:59:40.754Z,8.43
2023-01-13T04:05:03.274Z,6.33
2023-01-13T04:10:08.604Z,6.73
2023-01-13T04:15:11.069Z,5.13
2023-01-13T04:20:13.691Z,5.73
2023-01-13T04:25:16.129Z,4.00
2023-01-13T04:30:18.610Z,4.43
2023-01-13T04:35:20.901Z,7.30
2023-01-13T04:40:23.638Z,5.43
2023-01-13T04:45:25.897Z,5.40
2023-01-13T04:50:28.347Z,5.80
2023-01-13T04:55:32.067Z,3.60
2023-01-13T05:00:34.787Z,4.93
2023-01-13T05:05:38.208Z,2.97
2023-01-13T05:10:40.442Z,6.83
2023-01-13T05:16:01.933Z,8.27
2023-01-13T05:21:04.342Z,3.60
2023-01-13T05:26:06.877Z,4.37
2023-01-13T05:31:09.188Z,7.13
2023-01-13T05:36:11.521Z,8.33
2023-01-13T05:41:32.344Z,8.67
2023-01-13T05:46:38.233Z,5.37
2023-01-13T05:51:40.605Z,6.23
2023-01-13T05:56:42.786Z,7.77
2023-01-13T06:01:44.976Z,4.77
2023-01-13T06:06:48.864Z,8.63
2023-01-13T06:11:51.374Z,6.37
2023-01-13T06:16:54.829Z,7.77
2023-01-13T06:21:58.188Z,11.23
2023-01-13T06:27:00.435Z,5.80
2023-01-13T06:32:06.588Z,5.47
2023-01-13T06:37:09.241Z,6.57
2023-01-13T06:42:30.166Z,8.00
2023-01-13T06:47:33.716Z,10.60
2023-01-13T06:52:36.242Z,5.37
2023-01-13T06:57:49.884Z,8.63
2023-01-13T07:02:52.512Z,6.97
2023-01-13T07:07:54.823Z,9.30
2023-01-13T07:13:15.670Z,9.30
2023-01-13T07:18:17.888Z,7.57
2023-01-13T07:23:20.171Z,7.53
2023-01-13T07:28:22.799Z,5.00
2023-01-13T07:33:25.373Z,8.23
2023-01-13T07:38:27.908Z,4.67
2023-01-13T07:43:32.936Z,7.63
2023-01-13T07:48:35.574Z,9.67
2023-01-13T07:53:37.989Z,9.87
2023-01-13T07:58:40.281Z,11.07
2023-01-13T08:03:42.979Z,9.43
2023-01-13T08:08:45.264Z,4.83
2023-01-13T08:13:47.631Z,5.30
2023-01-13T08:18:50.207Z,5.33
2023-01-13T08:23:52.575Z,5.53
2023-01-13T08:28:54.879Z,5.00
2023-01-13T08:33:57.152Z,6.60
2023-01-13T08:38:59.442Z,5.57
2023-01-13T08:44:01.748Z,11.13
2023-01-13T08:49:04.278Z,8.40
2023-01-13T08:54:06.536Z,7.47
2023-01-13T08:59:16.815Z,5.77
2023-01-13T09:04:23.433Z,7.17
2023-01-13T09:09:29.418Z,10.20
2023-01-13T09:14:33.837Z,10.37
2023-01-13T09:19:36.248Z,6.70
2023-01-13T09:24:38.567Z,11.87
2023-01-13T09:29:41.206Z,6.17
2023-01-13T09:35:01.642Z,6.13
2023-01-13T09:40:26.317Z,8.17
2023-01-13T09:45:43.115Z,4.80
2023-01-13T09:51:09.844Z,7.17
2023-01-13T09:56:12.354Z,5.63
2023-01-13T10:01:39.593Z,8.00
2023-01-13T10:06:45.199Z,6.43
2023-01-13T10:12:06.551Z,6.47
2023-01-13T10:17:12.456Z,4.90
2023-01-13T10:22:36.344Z,6.10
2023-01-13T10:27:40.733Z,7.03
2023-01-13T10:32:47.242Z,6.93
2023-01-13T10:37:57.756Z,6.00
2023-01-13T10:43:06.974Z,8.53
2023-01-13T10:48:15.020Z,12.38
2023-01-13T10:53:25.480Z,8.77
2023-01-13T10:58:28.539Z,10.33
2023-01-13T11:03:43.233Z,9.30
2023-01-13T11:08:47.114Z,6.63
2023-01-13T11:14:10.285Z,7.70
2023-01-13T11:19:17.568Z,7.97
2023-01-13T11:24:40.346Z,6.80
2023-01-13T11:29:54.454Z,7.80
2023-01-13T11:35:01.392Z,9.60
2023-01-13T11:40:09.887Z,5.57
2023-01-13T11:45:44.827Z,5.73
2023-01-13T11:51:05.366Z,9.40
2023-01-13T11:56:14.329Z,12.45
2023-01-13T12:01:37.213Z,8.73
2023-01-13T12:06:40.524Z,8.27
2023-01-13T12:12:19.655Z,6.50
2023-01-13T12:17:37.242Z,9.20
2023-01-13T12:22:40.052Z,7.20
2023-01-13T12:27:50.124Z,9.10
2023-01-13T12:32:54.650Z,9.07
2023-01-13T12:38:14.160Z,7.63
2023-01-13T12:43:42.263Z,9.65
2023-01-13T12:49:02.431Z,11.00
2023-01-13T12:54:29.565Z,10.23
2023-01-13T12:59:35.623Z,8.60
2023-01-13T13:04:52.264Z,8.50
2023-01-13T13:10:02.274Z,11.57
2023-01-13T13:15:21.966Z,11.73
2023-01-13T13:20:57.110Z,10.50
2023-01-13T13:26:24.244Z,13.50
2023-01-13T13:31:32.754Z,12.70
2023-01-13T13:36:58.558Z,12.20
2023-01-13T13:42:41.619Z,15.27
2023-01-13T13:47:43.828Z,10.73
2023-01-13T13:52:54.643Z,9.27
2023-01-13T13:57:57.995Z,11.57
2023-01-13T14:03:02.055Z,14.67
2023-01-13T14:08:16.248Z,15.10
2023-01-13T14:13:23.120Z,14.70
2023-01-13T14:18:26.706Z,14.00
2023-01-13T14:23:31.816Z,14.57
2023-01-13T14:28:38.685Z,12.73
2023-01-13T14:33:46.421Z,17.53
2023-01-13T14:39:04.107Z,12.70
2023-01-13T14:44:30.293Z,13.90
2023-01-13T14:49:38.317Z,13.10
2023-01-13T14:54:54.125Z,12.83
2023-01-13T15:00:00.077Z,13.13
2023-01-13T15:05:24.818Z,16.37
2023-01-13T15:10:30.321Z,15.63
2023-01-13T15:15:37.446Z,11.50
2023-01-13T15:20:40.526Z,10.03
2023-01-13T15:25:43.655Z,15.53
2023-01-13T15:30:46.630Z,11.60
2023-01-13T15:35:53.291Z,13.00
2023-01-13T15:40:57.945Z,11.30
2023-01-13T15:46:19.666Z,12.83
2023-01-13T15:51:22.259Z,12.40
2023-01-13T15:56:26.927Z,12.20
2023-01-13T16:01:29.360Z,14.93
2023-01-13T16:06:36.506Z,13.57
2023-01-13T16:11:38.947Z,14.13
2023-01-13T16:16:42.523Z,11.73
2023-01-13T16:21:45.623Z,12.03
2023-01-13T16:26:47.976Z,11.27
2023-01-13T16:31:54.029Z,13.67
2023-01-13T16:36:56.985Z,8.40
2023-01-13T16:41:59.535Z,15.20
2023-01-13T16:47:02.648Z,12.00
2023-01-13T16:52:05.073Z,16.97
2023-01-13T16:57:08.132Z,13.30
2023-01-13T17:02:15.778Z,15.90
2023-01-13T17:07:18.455Z,16.03
2023-01-13T17:12:20.723Z,14.60
2023-01-13T17:17:25.676Z,16.93
2023-01-13T17:22:28.003Z,14.07
2023-01-13T17:27:30.525Z,9.37
2023-01-13T17:32:32.919Z,12.43
2023-01-13T17:37:35.610Z,12.23
2023-01-13T17:42:41.199Z,17.40
2023-01-13T17:47:43.586Z,13.77
2023-01-13T17:52:45.920Z,12.50
2023-01-13T17:57:53.257Z,11.10
2023-01-13T18:02:56.184Z,14.70
2023-01-13T18:07:58.514Z,13.00
2023-01-13T18:13:03.721Z,13.80
2023-01-13T18:18:06.247Z,13.37
2023-01-13T18:23:38.270Z,13.73
2023-01-13T18:28:40.736Z,9.90
2023-01-13T18:33:43.346Z,13.60
2023-01-13T18:38:56.125Z,12.07
2023-01-13T18:43:58.980Z,10.93
2023-01-13T18:49:01.574Z,14.47
2023-01-13T18:54:05.581Z,14.00
2023-01-13T18:59:11.385Z,11.63
2023-01-13T19:04:18.471Z,18.57
2023-01-13T19:09:25.026Z,13.10
2023-01-13T19:14:38.128Z,12.70
2023-01-13T19:19:47.202Z,14.40
2023-01-13T19:24:54.399Z,18.02
2023-01-13T19:30:00.744Z,14.47
2023-01-13T19:35:06.359Z,13.57
2023-01-13T19:40:24.554Z,17.23
2023-01-13T19:45:32.439Z,14.53
2023-01-13T19:50:53.123Z,21.73
2023-01-13T19:55:55.536Z,19.03
2023-01-13T20:00:57.880Z,15.60
2023-01-13T20:06:11.162Z,16.50
2023-01-13T20:11:31.233Z,16.40
2023-01-13T20:16:34.121Z,13.53
2023-01-13T20:21:38.018Z,17.20
2023-01-13T20:26:40.423Z,15.73
2023-01-13T20:31:48.070Z,18.10
2023-01-13T20:36:50.843Z,14.20
2023-01-13T20:42:12.479Z,13.80
2023-01-13T20:47:14.784Z,17.73
2023-01-13T20:52:17.242Z,15.83
2023-01-13T20:57:19.543Z,14.37
2023-01-13T21:02:23.497Z,16.23
2023-01-13T21:07:25.948Z,12.17
2023-01-13T21:12:46.785Z,14.77
2023-01-13T21:18:09.672Z,12.07
2023-01-13T21:23:12.096Z,13.97
2023-01-13T21:28:16.452Z,14.13
2023-01-13T21:33:18.882Z,15.40
2023-01-13T21:38:21.116Z,17.97
2023-01-13T21:43:41.869Z,11.13
2023-01-13T21:48:44.160Z,14.53
2023-01-13T21:53:46.543Z,14.27
2023-01-13T21:58:49.150Z,17.77
2023-01-13T22:04:09.812Z,13.53
2023-01-13T22:09:13.077Z,21.43
2023-01-13T22:14:15.640Z,11.73
2023-01-13T22:19:18.960Z,16.87
2023-01-13T22:24:21.695Z,15.47
2023-01-13T22:29:23.876Z,13.60
2023-01-13T22:34:26.074Z,12.77
2023-01-13T22:39:28.506Z,10.87
2023-01-13T22:44:30.915Z,12.97
2023-01-13T22:49:33.407Z,12.20
2023-01-13T22:54:35.596Z,11.50
2023-01-13T22:59:37.858Z,12.20
2023-01-13T23:04:40.152Z,11.53
2023-01-13T23:09:42.421Z,13.30
2023-01-13T23:14:44.602Z,12.23
2023-01-13T23:19:46.987Z,13.37
2023-01-13T23:24:49.398Z,14.37
2023-01-13T23:29:51.706Z,11.97
2023-01-13T23:34:53.955Z,11.93
2023-01-13T23:39:56.226Z,17.57
2023-01-13T23:45:01.339Z,12.77
2023-01-13T23:50:06.186Z,17.23
2023-01-13T23:55:09.008Z,13.87
